Time;durP1;ratioP1;P1;durP2;ratioP2;P2;SDS_P1;SDS_P2;PMS_P1;PMS_P2;Temp;Humidity;BMP_temperature;BMP_pressure;BME280_temperature;BME280_humidity;BME280_pressure;Samples;Min_cycle;Max_cycle;Signal;HPM_P1;HPM_P2
2021/05/01 00:00:39;;;;;;;10.93;3.60;;;;;;;;;;5063132;28;20032;-74
2021/05/01 00:03:05;;;;;;;9.93;3.70;;;;;;;;;;5070537;28;20025;-74
2021/05/01 00:05:33;;;;;;;6.93;3.60;;;;;;;;;;5078835;28;20024;-74
2021/05/01 00:07:59;;;;;;;9.85;3.47;;;;;;;;;;5064565;28;20547;-74
2021/05/01 00:10:25;;;;;;;8.10;3.60;;;;;;;;;;5067096;28;20029;-74
2021/05/01 00:12:51;;;;;;;10.23;3.95;;;;;;;;;;5070181;28;20484;-73
2021/05/01 00:15:17;;;;;;;8.63;3.20;;;;;;;;;;5061605;28;20377;-74
2021/05/01 00:17:44;;;;;;;9.65;3.55;;;;;;;;;;5070750;28;20021;-74
2021/05/01 00:20:11;;;;;;;8.48;3.25;;;;;;;;;;5058905;28;20441;-74
2021/05/01 00:22:37;;;;;;;10.85;3.45;;;;;;;;;;5060324;28;20028;-74
2021/05/01 00:25:04;;;;;;;12.18;3.20;;;;;;;;;;5070903;28;20028;-73
2021/05/01 00:27:30;;;;;;;11.75;3.88;;;;;;;;;;5076797;28;20353;-74
2021/05/01 00:29:56;;;;;;;8.23;3.25;;;;;;;;;;5067413;28;20557;-74
2021/05/01 00:32:25;;;;;;;11.65;4.00;;;;;;;;;;5069728;28;20037;-74
2021/05/01 00:34:51;;;;;;;11.30;3.90;;;;;;;;;;5068782;28;20028;-73
2021/05/01 00:37:17;;;;;;;9.63;3.70;;;;;;;;;;5068809;28;20029;-74
2021/05/01 00:39:43;;;;;;;8.63;3.45;;;;;;;;;;5060422;28;20081;-74
2021/05/01 00:42:09;;;;;;;10.23;3.78;;;;;;;;;;5073168;28;20139;-73
2021/05/01 00:44:35;;;;;;;6.28;3.80;;;;;;;;;;5084903;28;20024;-74
2021/05/01 00:47:01;;;;;;;8.73;3.40;;;;;;;;;;5072444;28;20020;-74
2021/05/01 00:49:27;;;;;;;13.77;4.90;;;;;;;;;;5080913;28;20070;-74
2021/05/01 00:51:53;;;;;;;13.88;4.43;;;;;;;;;;5078639;28;20118;-74
2021/05/01 00:54:19;;;;;;;11.07;4.13;;;;;;;;;;5073486;28;20048;-74
2021/05/01 00:56:45;;;;;;;10.80;3.88;;;;;;;;;;5061622;28;20104;-74
2021/05/01 00:59:12;;;;;;;10.43;4.10;;;;;;;;;;5075917;28;20136;-73
2021/05/01 01:01:47;;;;;;;10.48;4.07;;;;;;;;;;5065360;28;20017;-74
2021/05/01 01:04:13;;;;;;;10.18;3.70;;;;;;;;;;5070671;28;20103;-74
2021/05/01 01:06:39;;;;;;;10.02;3.97;;;;;;;;;;5072413;28;20033;-74
2021/05/01 01:09:05;;;;;;;8.60;4.00;;;;;;;;;;5072796;28;20029;-74
2021/05/01 01:11:31;;;;;;;8.63;3.83;;;;;;;;;;5064001;28;20386;-73
2021/05/01 01:14:00;;;;;;;10.50;3.92;;;;;;;;;;5064502;28;20040;-74
2021/05/01 01:16:28;;;;;;;10.63;4.50;;;;;;;;;;5069920;28;20377;-74
2021/05/01 01:18:54;;;;;;;10.38;4.00;;;;;;;;;;5065196;28;20040;-73
2021/05/01 01:21:21;;;;;;;11.00;4.00;;;;;;;;;;5072841;28;20028;-73
2021/05/01 01:23:47;;;;;;;9.55;4.20;;;;;;;;;;5070114;28;20123;-74
2021/05/01 01:26:13;;;;;;;8.15;4.07;;;;;;;;;;5074037;28;20078;-74
2021/05/01 01:28:40;;;;;;;11.90;4.63;;;;;;;;;;5077531;28;20037;-74
2021/05/01 01:31:06;;;;;;;12.45;4.03;;;;;;;;;;5074081;28;20047;-74
2021/05/01 01:33:32;;;;;;;10.02;4.15;;;;;;;;;;5072343;28;20040;-73
2021/05/01 01:35:58;;;;;;;11.25;4.35;;;;;;;;;;5068957;28;20025;-74
2021/05/01 01:38:26;;;;;;;11.93;4.07;;;;;;;;;;5074013;28;20036;-74
2021/05/01 01:40:53;;;;;;;11.77;4.15;;;;;;;;;;5054333;28;20029;-74
2021/05/01 01:43:19;;;;;;;8.57;4.32;;;;;;;;;;5072746;28;20094;-74
2021/05/01 01:45:45;;;;;;;7.18;3.80;;;;;;;;;;5085399;28;20027;-74
2021/05/01 01:48:11;;;;;;;10.20;3.90;;;;;;;;;;5068128;28;20032;-73
2021/05/01 01:50:37;;;;;;;10.20;4.00;;;;;;;;;;5075042;28;20032;-74
2021/05/01 01:53:04;;;;;;;11.43;4.22;;;;;;;;;;5090428;28;20051;-74
2021/05/01 01:55:31;;;;;;;11.38;4.35;;;;;;;;;;5070150;28;20371;-73
2021/05/01 01:58:01;;;;;;;13.05;4.35;;;;;;;;;;5075397;28;20021;-74
2021/05/01 02:00:28;;;;;;;8.93;3.88;;;;;;;;;;5067186;28;20105;-74
2021/05/01 02:02:55;;;;;;;11.15;4.32;;;;;;;;;;5061860;28;20025;-74
2021/05/01 02:05:22;;;;;;;8.48;3.88;;;;;;;;;;5070586;28;20366;-73
2021/05/01 02:07:48;;;;;;;12.43;3.97;;;;;;;;;;5067053;28;20016;-74
2021/05/01 02:10:15;;;;;;;10.82;4.05;;;;;;;;;;5071915;28;20024;-74
2021/05/01 02:12:44;;;;;;;7.90;3.80;;;;;;;;;;5069543;28;20036;-74
2021/05/01 02:15:15;;;;;;;8.05;3.70;;;;;;;;;;5070905;28;20086;-74
2021/05/01 02:17:43;;;;;;;7.80;3.67;;;;;;;;;;5067239;28;20792;-73
2021/05/01 02:20:10;;;;;;;8.52;3.53;;;;;;;;;;5069560;28;20466;-74
2021/05/01 02:22:37;;;;;;;7.07;3.53;;;;;;;;;;5073624;28;20029;-74
2021/05/01 02:25:06;;;;;;;8.52;3.67;;;;;;;;;;5070385;28;20021;-74
2021/05/01 02:27:32;;;;;;;10.05;3.80;;;;;;;;;;5071048;28;20040;-74
2021/05/01 02:29:59;;;;;;;11.23;4.00;;;;;;;;;;5066098;28;20496;-73
2021/05/01 02:32:25;;;;;;;9.15;3.53;;;;;;;;;;5068738;28;20481;-73
2021/05/01 02:34:51;;;;;;;11.10;3.67;;;;;;;;;;5067678;28;20085;-73
2021/05/01 02:37:17;;;;;;;11.32;4.32;;;;;;;;;;5072845;28;20354;-74
2021/05/01 02:39:45;;;;;;;12.73;3.80;;;;;;;;;;5069637;28;20068;-74
2021/05/01 02:42:12;;;;;;;8.02;3.92;;;;;;;;;;5070968;28;20052;-74
2021/05/01 02:44:44;;;;;;;11.63;3.75;;;;;;;;;;5079419;28;20087;-74
2021/05/01 02:47:10;;;;;;;10.02;3.85;;;;;;;;;;5081366;28;20020;-74
2021/05/01 02:49:39;;;;;;;10.10;3.67;;;;;;;;;;5078841;28;20499;-74
2021/05/01 02:52:05;;;;;;;15.02;4.20;;;;;;;;;;5075376;28;20397;-74
2021/05/01 02:54:31;;;;;;;8.07;3.90;;;;;;;;;;5059189;28;20107;-73
2021/05/01 02:56:59;;;;;;;12.45;3.97;;;;;;;;;;5085619;28;20024;-74
2021/05/01 02:59:25;;;;;;;9.18;3.90;;;;;;;;;;5063811;28;20032;-74
2021/05/01 03:01:52;;;;;;;10.57;3.75;;;;;;;;;;5068026;28;20040;-74
2021/05/01 03:04:19;;;;;;;7.43;4.03;;;;;;;;;;5062076;28;20814;-74
2021/05/01 03:06:45;;;;;;;9.00;3.47;;;;;;;;;;5072270;28;20024;-74
2021/05/01 03:09:12;;;;;;;10.18;4.45;;;;;;;;;;5071042;28;20021;-74
2021/05/01 03:11:38;;;;;;;8.82;4.95;;;;;;;;;;5070281;28;20020;-74
2021/05/01 03:14:04;;;;;;;10.77;4.68;;;;;;;;;;5068994;28;20481;-74
2021/05/01 03:16:30;;;;;;;9.18;4.18;;;;;;;;;;5073082;28;20035;-74
2021/05/01 03:18:58;;;;;;;9.35;3.90;;;;;;;;;;5080065;28;20107;-74
2021/05/01 03:21:24;;;;;;;13.15;3.90;;;;;;;;;;5062607;28;20082;-74
2021/05/01 03:23:52;;;;;;;14.23;4.20;;;;;;;;;;5068808;28;20462;-73
2021/05/01 03:26:20;;;;;;;17.55;4.80;;;;;;;;;;5072207;28;20028;-74
2021/05/01 03:28:47;;;;;;;11.80;4.10;;;;;;;;;;5064915;28;20029;-74
2021/05/01 03:31:15;;;;;;;14.95;4.50;;;;;;;;;;5068382;28;21627;-74
2021/05/01 03:33:49;;;;;;;11.88;4.15;;;;;;;;;;5073774;28;20040;-74
2021/05/01 03:36:15;;;;;;;10.15;4.30;;;;;;;;;;5075937;28;20032;-73
2021/05/01 03:38:41;;;;;;;13.95;4.30;;;;;;;;;;5067840;28;20028;-74
2021/05/01 03:41:07;;;;;;;9.73;4.00;;;;;;;;;;5070169;28;20025;-74
2021/05/01 03:43:34;;;;;;;11.20;4.50;;;;;;;;;;5078220;28;20123;-74
2021/05/01 03:46:00;;;;;;;11.23;4.68;;;;;;;;;;5084439;28;20070;-74
2021/05/01 03:48:30;;;;;;;21.17;5.00;;;;;;;;;;5086269;28;20039;-74
2021/05/01 03:50:57;;;;;;;13.10;4.53;;;;;;;;;;5060909;28;20036;-74
2021/05/01 03:53:23;;;;;;;14.30;4.40;;;;;;;;;;5067325;28;20041;-74
2021/05/01 03:55:49;;;;;;;9.00;4.10;;;;;;;;;;5080234;28;20233;-74
2021/05/01 03:58:15;;;;;;;10.15;4.22;;;;;;;;;;5066054;28;20028;-74
2021/05/01 04:00:41;;;;;;;12.77;4.40;;;;;;;;;;5068165;28;20492;-73
2021/05/01 04:03:09;;;;;;;8.45;4.45;;;;;;;;;;5062845;28;20386;-74
2021/05/01 04:05:35;;;;;;;15.63;4.65;;;;;;;;;;5078531;28;20046;-74
2021/05/01 04:08:02;;;;;;;10.00;4.28;;;;;;;;;;5062817;28;20111;-74
2021/05/01 04:10:30;;;;;;;9.02;4.00;;;;;;;;;;5071232;28;20025;-75
2021/05/01 04:12:56;;;;;;;14.48;4.78;;;;;;;;;;5068851;28;20021;-74
2021/05/01 04:15:22;;;;;;;12.23;4.65;;;;;;;;;;5073877;28;20055;-73
2021/05/01 04:17:49;;;;;;;11.90;4.57;;;;;;;;;;5069747;28;20492;-74
2021/05/01 04:20:15;;;;;;;16.58;5.00;;;;;;;;;;5074434;28;20520;-74
2021/05/01 04:22:41;;;;;;;11.30;4.50;;;;;;;;;;5072517;28;20428;-73
2021/05/01 04:25:11;;;;;;;7.80;4.03;;;;;;;;;;5073944;28;20032;-74
2021/05/01 04:27:37;;;;;;;13.52;5.93;;;;;;;;;;5073557;28;20044;-74
2021/05/01 04:30:04;;;;;;;15.27;5.97;;;;;;;;;;5073581;28;20020;-74
2021/05/01 04:32:30;;;;;;;11.63;6.07;;;;;;;;;;5065595;28;20028;-74
2021/05/01 04:34:56;;;;;;;13.73;6.80;;;;;;;;;;5065657;28;20025;-74
2021/05/01 04:37:25;;;;;;;15.60;6.53;;;;;;;;;;5075264;28;20032;-74
2021/05/01 04:39:53;;;;;;;14.48;6.90;;;;;;;;;;5066384;28;20540;-74
2021/05/01 04:42:19;;;;;;;17.42;7.47;;;;;;;;;;5069783;28;20048;-74
2021/05/01 04:44:45;;;;;;;16.77;7.47;;;;;;;;;;5065256;28;20037;-74
2021/05/01 04:47:17;;;;;;;14.07;7.38;;;;;;;;;;5066520;28;20431;-73
2021/05/01 04:49:49;;;;;;;22.58;8.23;;;;;;;;;;5049904;28;20084;-74
2021/05/01 04:52:15;;;;;;;15.43;8.00;;;;;;;;;;5049508;28;20081;-73
2021/05/01 04:54:41;;;;;;;17.83;7.90;;;;;;;;;;5050539;28;20498;-72
2021/05/01 04:57:07;;;;;;;28.00;7.78;;;;;;;;;;5034233;28;20060;-73
2021/05/01 04:59:33;;;;;;;14.80;8.68;;;;;;;;;;5049768;28;20161;-72
2021/05/01 05:01:59;;;;;;;14.48;7.60;;;;;;;;;;5050935;28;20027;-74
2021/05/01 05:04:25;;;;;;;14.43;7.32;;;;;;;;;;5051063;28;20041;-73
2021/05/01 05:06:51;;;;;;;19.58;8.48;;;;;;;;;;5052266;28;20075;-73
2021/05/01 05:09:18;;;;;;;22.85;8.40;;;;;;;;;;5055054;28;20039;-74
2021/05/01 05:11:44;;;;;;;18.55;7.45;;;;;;;;;;5034979;28;20490;-74
2021/05/01 05:14:10;;;;;;;17.58;7.35;;;;;;;;;;5051496;28;20104;-74
2021/05/01 05:16:36;;;;;;;25.88;8.40;;;;;;;;;;5051290;28;20079;-73
2021/05/01 05:19:02;;;;;;;29.35;8.95;;;;;;;;;;5059652;28;20108;-73
2021/05/01 05:21:31;;;;;;;18.85;6.88;;;;;;;;;;5036819;28;20441;-73
2021/05/01 05:23:57;;;;;;;13.45;6.53;;;;;;;;;;5053527;28;20417;-73
2021/05/01 05:26:23;;;;;;;12.05;6.57;;;;;;;;;;5053547;28;20417;-74
2021/05/01 05:28:49;;;;;;;17.10;8.00;;;;;;;;;;5053513;28;20405;-73
2021/05/01 05:31:16;;;;;;;14.63;7.90;;;;;;;;;;5053454;28;20385;-74
2021/05/01 05:33:42;;;;;;;19.25;8.60;;;;;;;;;;5037122;28;20064;-73
2021/05/01 05:36:09;;;;;;;20.42;9.63;;;;;;;;;;5053343;28;20490;-73
2021/05/01 05:38:38;;;;;;;25.88;8.77;;;;;;;;;;5042847;28;20108;-75
2021/05/01 05:41:06;;;;;;;22.20;8.32;;;;;;;;;;5050619;28;20099;-74
2021/05/01 05:43:34;;;;;;;23.95;8.35;;;;;;;;;;5049257;28;20059;-74
2021/05/01 05:46:11;;;;;;;30.92;8.00;;;;;;;;;;5050909;28;20032;-75
2021/05/01 05:48:39;;;;;;;29.90;10.85;;;;;;;;;;5043690;28;20052;-75
2021/05/01 05:51:05;;;;;;;22.23;8.32;;;;;;;;;;5048396;28;20544;-73
2021/05/01 05:53:32;;;;;;;21.63;7.97;;;;;;;;;;5049769;28;20045;-76
2021/05/01 05:55:58;;;;;;;28.38;9.25;;;;;;;;;;5049505;28;20031;-75
2021/05/01 05:58:25;;;;;;;21.05;7.60;;;;;;;;;;5049777;28;20083;-75
2021/05/01 06:00:51;;;;;;;18.73;7.35;;;;;;;;;;5049104;28;20075;-80
2021/05/01 06:03:18;;;;;;;15.23;8.13;;;;;;;;;;5048535;28;20037;-79
2021/05/01 06:05:46;;;;;;;24.17;8.00;;;;;;;;;;5034405;28;20131;-87
2021/05/01 06:08:13;;;;;;;16.85;7.78;;;;;;;;;;5061059;28;20086;-85
2021/05/01 06:10:39;;;;;;;15.77;7.28;;;;;;;;;;5049278;28;20028;-78
2021/05/01 06:13:06;;;;;;;17.40;7.57;;;;;;;;;;5046735;28;20524;-86
2021/05/01 06:15:32;;;;;;;24.55;7.75;;;;;;;;;;5035830;28;20033;-83
2021/05/01 06:17:59;;;;;;;19.27;7.95;;;;;;;;;;5043497;28;20067;-88
2021/05/01 06:20:26;;;;;;;15.57;7.70;;;;;;;;;;5030344;28;20513;-72
2021/05/01 06:22:53;;;;;;;14.25;7.22;;;;;;;;;;5047863;28;20044;-73
2021/05/01 06:25:47;;;;;;;17.80;7.38;;;;;;;;;;5051051;28;20035;-73
2021/05/01 06:28:13;;;;;;;17.63;6.80;;;;;;;;;;5024329;28;20037;-74
2021/05/01 06:30:41;;;;;;;22.20;7.22;;;;;;;;;;5049554;28;20029;-75
2021/05/01 06:33:15;;;;;;;25.45;6.47;;;;;;;;;;5072580;28;20481;-76
2021/05/01 06:35:42;;;;;;;11.27;5.20;;;;;;;;;;5066463;28;20025;-75
2021/05/01 06:38:08;;;;;;;17.02;5.43;;;;;;;;;;5064309;28;20080;-75
2021/05/01 06:40:43;;;;;;;23.85;8.50;;;;;;;;;;5072489;28;20047;-74
2021/05/01 06:43:21;;;;;;;24.13;11.25;;;;;;;;;;5066529;28;20051;-74
2021/05/01 06:45:47;;;;;;;25.08;9.10;;;;;;;;;;5066362;28;20033;-75
2021/05/01 06:48:15;;;;;;;26.15;8.23;;;;;;;;;;5069129;28;20021;-82
2021/05/01 06:50:43;;;;;;;22.15;7.50;;;;;;;;;;5069240;28;20031;-88
2021/05/01 06:53:09;;;;;;;21.73;8.63;;;;;;;;;;5071180;28;20035;-83
2021/05/01 06:55:35;;;;;;;22.00;10.00;;;;;;;;;;5061304;28;20032;-77
2021/05/01 07:01:05;;;;;;;18.85;8.65;;;;;;;;;;5060246;28;20566;-74
2021/05/01 07:03:35;;;;;;;19.85;9.02;;;;;;;;;;5074516;28;20017;-74
2021/05/01 07:06:14;;;;;;;19.55;8.10;;;;;;;;;;5076659;28;20017;-72
2021/05/01 07:08:41;;;;;;;19.00;7.63;;;;;;;;;;5065236;28;20021;-73
2021/05/01 07:11:07;;;;;;;12.95;6.80;;;;;;;;;;5071656;28;20028;-75
2021/05/01 07:13:34;;;;;;;19.88;7.63;;;;;;;;;;5070184;28;20127;-73
2021/05/01 07:16:41;;;;;;;19.85;7.22;;;;;;;;;;5072934;28;20492;-73
2021/05/01 07:19:10;;;;;;;17.75;9.30;;;;;;;;;;4991164;28;20145;-73
2021/05/01 07:21:36;;;;;;;15.75;8.63;;;;;;;;;;5003604;28;20040;-72
2021/05/01 07:24:03;;;;;;;14.73;8.05;;;;;;;;;;5009113;28;20088;-72
2021/05/01 07:26:30;;;;;;;22.00;8.20;;;;;;;;;;5006285;28;20034;-73
2021/05/01 07:29:04;;;;;;;15.23;7.50;;;;;;;;;;5007512;28;20030;-73
2021/05/01 07:31:35;;;;;;;16.67;7.18;;;;;;;;;;4991663;28;20086;-74
2021/05/01 07:34:02;;;;;;;17.73;7.60;;;;;;;;;;5003239;28;20038;-73
2021/05/01 07:36:33;;;;;;;15.68;7.05;;;;;;;;;;5006221;28;20108;-74
2021/05/01 07:39:00;;;;;;;15.60;6.90;;;;;;;;;;5001433;28;20029;-74
2021/05/01 07:41:27;;;;;;;16.83;7.25;;;;;;;;;;4999705;28;20036;-73
2021/05/01 07:43:53;;;;;;;12.35;7.20;;;;;;;;;;5007195;28;20542;-73
2021/05/01 07:46:22;;;;;;;23.63;14.77;;;;;;;;;;5009331;28;20034;-73
2021/05/01 07:48:48;;;;;;;27.00;11.98;;;;;;;;;;5047784;28;20037;-74
2021/05/01 07:51:14;;;;;;;20.02;7.32;;;;;;;;;;5082364;28;20063;-74
2021/05/01 07:53:40;;;;;;;18.83;7.82;;;;;;;;;;5078124;28;20043;-74
2021/05/01 07:56:06;;;;;;;18.70;7.97;;;;;;;;;;5078349;28;20484;-74
2021/05/01 07:58:32;;;;;;;16.15;6.80;;;;;;;;;;5077400;28;20033;-73
2021/05/01 08:00:58;;;;;;;16.63;7.00;;;;;;;;;;5081965;28;20099;-73
2021/05/01 08:03:30;;;;;;;15.77;6.68;;;;;;;;;;5074114;28;20397;-73
2021/05/01 08:05:56;;;;;;;27.15;11.50;;;;;;;;;;5080345;28;20378;-73
2021/05/01 08:08:24;;;;;;;14.48;7.78;;;;;;;;;;5086942;28;20039;-73
2021/05/01 08:10:50;;;;;;;14.60;5.45;;;;;;;;;;5094580;28;20557;-73
2021/05/01 08:13:33;;;;;;;15.00;5.90;;;;;;;;;;5082730;28;20060;-73
2021/05/01 08:15:59;;;;;;;111.43;87.75;;;;;;;;;;5083706;28;20024;-73
2021/05/01 08:18:25;;;;;;;19.60;9.13;;;;;;;;;;5080214;28;20033;-70
2021/05/01 08:20:52;;;;;;;13.45;6.10;;;;;;;;;;5080406;28;20024;-73
2021/05/01 08:23:24;;;;;;;16.13;5.47;;;;;;;;;;5071757;28;20226;-73
2021/05/01 08:25:50;;;;;;;16.48;10.90;;;;;;;;;;5066201;28;20540;-72
2021/05/01 08:28:17;;;;;;;27.13;14.45;;;;;;;;;;5074566;28;20370;-73
2021/05/01 08:30:43;;;;;;;24.75;7.93;;;;;;;;;;5074865;28;20427;-73
2021/05/01 08:33:35;;;;;;;11.80;6.70;;;;;;;;;;5080757;28;20032;-73
2021/05/01 08:36:01;;;;;;;12.07;5.93;;;;;;;;;;5068266;28;20570;-74
2021/05/01 08:38:31;;;;;;;15.50;6.55;;;;;;;;;;5068779;28;20389;-72
2021/05/01 08:41:13;;;;;;;18.10;6.30;;;;;;;;;;5066680;28;20023;-73
2021/05/01 08:43:39;;;;;;;15.35;7.35;;;;;;;;;;5072541;28;20069;-73
2021/05/01 08:46:14;;;;;;;15.75;6.20;;;;;;;;;;5076050;28;20016;-72
2021/05/01 08:48:52;;;;;;;11.90;5.40;;;;;;;;;;5076019;28;20020;-72
2021/05/01 08:51:26;;;;;;;11.82;6.30;;;;;;;;;;5064398;28;20041;-72
2021/05/01 08:53:52;;;;;;;14.85;5.78;;;;;;;;;;5071709;28;20103;-71
2021/05/01 08:56:22;;;;;;;11.63;5.00;;;;;;;;;;5079693;28;20072;-73
2021/05/01 08:58:54;;;;;;;18.50;6.05;;;;;;;;;;5072928;28;20330;-72
2021/05/01 09:01:29;;;;;;;30.10;6.63;;;;;;;;;;5068585;28;20386;-72
2021/05/01 09:04:29;;;;;;;45.42;29.60;;;;;;;;;;5079868;28;20040;-73
2021/05/01 09:06:57;;;;;;;13.52;6.05;;;;;;;;;;5071763;28;20032;-74
2021/05/01 09:09:33;;;;;;;20.60;6.50;;;;;;;;;;5071259;28;20038;-73
2021/05/01 09:12:01;;;;;;;20.77;8.77;;;;;;;;;;5070652;28;20126;-72
2021/05/01 09:14:29;;;;;;;11.15;5.53;;;;;;;;;;5074542;28;20058;-74
2021/05/01 09:17:04;;;;;;;15.40;5.95;;;;;;;;;;5083069;28;20021;-73
2021/05/01 09:19:31;;;;;;;17.70;8.02;;;;;;;;;;5063704;28;20038;-72
2021/05/01 09:22:10;;;;;;;18.33;6.65;;;;;;;;;;5069958;28;20063;-73
2021/05/01 09:24:38;;;;;;;12.95;5.65;;;;;;;;;;5071402;28;20046;-74
2021/05/01 09:27:05;;;;;;;12.23;5.55;;;;;;;;;;5074853;28;20430;-73
2021/05/01 09:29:38;;;;;;;12.98;5.47;;;;;;;;;;5077822;28;20024;-74
2021/05/01 09:32:05;;;;;;;14.63;5.70;;;;;;;;;;5073082;28;20404;-72
2021/05/01 09:34:45;;;;;;;18.08;6.72;;;;;;;;;;5075394;28;20107;-73
2021/05/01 09:37:17;;;;;;;16.77;6.18;;;;;;;;;;5082477;28;20111;-75
2021/05/01 09:39:51;;;;;;;13.13;5.93;;;;;;;;;;5070101;28;20495;-73
2021/05/01 09:42:43;;;;;;;12.52;5.85;;;;;;;;;;5060742;28;20041;-70
2021/05/01 09:45:25;;;;;;;14.73;6.70;;;;;;;;;;5074112;28;20067;-71
2021/05/01 09:47:55;;;;;;;11.38;5.32;;;;;;;;;;5065878;28;20355;-71
2021/05/01 09:50:55;;;;;;;15.57;6.25;;;;;;;;;;5080069;28;20020;-72
2021/05/01 09:53:21;;;;;;;14.88;5.65;;;;;;;;;;5060212;28;20045;-72
2021/05/01 09:55:56;;;;;;;11.98;5.85;;;;;;;;;;5069355;28;20485;-72
2021/05/01 09:58:34;;;;;;;16.13;5.97;;;;;;;;;;5059527;28;20453;-72
2021/05/01 10:01:21;;;;;;;17.83;6.10;;;;;;;;;;5065239;28;20112;-71
2021/05/01 10:04:22;;;;;;;;;;;;;;;;;;;;;
2021/05/01 10:06:52;;;;;;;14.88;5.70;;;;;;;;;;5068851;28;20028;-71
2021/05/01 10:09:28;;;;;;;14.45;5.57;;;;;;;;;;5066789;28;20024;-71
2021/05/01 10:12:40;;;;;;;16.92;6.18;;;;;;;;;;5070774;28;20122;-71
2021/05/01 10:15:23;;;;;;;14.27;5.43;;;;;;;;;;5034034;28;20047;-72
2021/05/01 10:18:10;;;;;;;16.13;5.55;;;;;;;;;;5046824;28;20032;-71
2021/05/01 10:20:58;;;;;;;13.60;5.95;;;;;;;;;;5051162;28;20620;-71
2021/05/01 10:23:26;;;;;;;13.50;5.25;;;;;;;;;;5045023;28;20079;-71
2021/05/01 10:25:52;;;;;;;15.70;6.57;;;;;;;;;;5050093;28;20079;-72
2021/05/01 10:28:30;;;;;;;16.50;6.20;;;;;;;;;;5044102;28;20149;-72
2021/05/01 10:30:59;;;;;;;13.98;5.60;;;;;;;;;;5028094;28;20044;-71
2021/05/01 10:33:31;;;;;;;14.60;7.03;;;;;;;;;;5043686;28;20045;-70
2021/05/01 10:36:16;;;;;;;14.32;5.97;;;;;;;;;;5046609;28;20048;-71
2021/05/01 10:39:06;;;;;;;18.95;5.93;;;;;;;;;;5043673;28;20514;-71
2021/05/01 10:41:33;;;;;;;16.20;5.95;;;;;;;;;;5048712;28;20513;-71
2021/05/01 10:44:00;;;;;;;18.20;5.30;;;;;;;;;;5037282;28;20048;-71
2021/05/01 10:49:34;;;;;;;16.30;6.88;;;;;;;;;;5026594;28;20727;-71
2021/05/01 10:52:12;;;;;;;19.08;5.22;;;;;;;;;;5029327;28;20044;-71
2021/05/01 10:54:38;;;;;;;19.73;5.82;;;;;;;;;;5028237;28;20115;-70
2021/05/01 10:57:27;;;;;;;23.75;6.80;;;;;;;;;;5029719;28;20036;-71
2021/05/01 11:00:01;;;;;;;15.50;6.47;;;;;;;;;;5029416;28;20045;-71
2021/05/01 11:02:53;;;;;;;30.20;7.28;;;;;;;;;;5028536;28;20037;-72
2021/05/01 11:05:21;;;;;;;19.92;6.65;;;;;;;;;;5025251;28;20037;-71
2021/05/01 11:07:51;;;;;;;20.08;6.90;;;;;;;;;;5024773;28;20495;-72
2021/05/01 11:13:04;;;;;;;18.75;6.78;;;;;;;;;;5009827;28;20025;-71
2021/05/01 11:15:38;;;;;;;70.88;8.80;;;;;;;;;;5029252;28;20040;-71
2021/05/01 11:21:44;;;;;;;15.45;6.20;;;;;;;;;;5017279;28;20052;-70
2021/05/01 11:24:12;;;;;;;18.88;8.32;;;;;;;;;;5018179;28;20021;-70
2021/05/01 11:26:45;;;;;;;48.97;8.13;;;;;;;;;;5043421;28;20037;-72
2021/05/01 11:29:14;;;;;;;14.20;5.78;;;;;;;;;;5051353;28;20021;-72
2021/05/01 11:31:43;;;;;;;12.73;5.65;;;;;;;;;;5049460;28;20033;-73
2021/05/01 11:34:10;;;;;;;21.30;10.45;;;;;;;;;;5048729;28;20047;-73
2021/05/01 11:36:48;;;;;;;18.48;6.07;;;;;;;;;;5051858;28;20024;-70
2021/05/01 11:39:15;;;;;;;20.35;8.20;;;;;;;;;;5045277;28;20068;-73
2021/05/01 11:41:45;;;;;;;15.82;6.95;;;;;;;;;;5053366;28;20029;-71
2021/05/01 11:44:33;;;;;;;16.25;5.93;;;;;;;;;;5026042;28;20042;-71
2021/05/01 11:47:21;;;;;;;20.42;7.38;;;;;;;;;;5021486;28;20038;-73
2021/05/01 11:53:11;;;;;;;17.02;6.53;;;;;;;;;;5020364;28;20546;-71
2021/05/01 11:55:47;;;;;;;18.98;7.03;;;;;;;;;;5025241;28;20057;-72
2021/05/01 11:58:29;;;;;;;15.27;6.15;;;;;;;;;;5030619;28;20380;-72
2021/05/01 12:00:55;;;;;;;16.27;7.70;;;;;;;;;;5027100;28;20018;-73
2021/05/01 12:03:24;;;;;;;17.38;6.43;;;;;;;;;;5027660;28;20084;-73
2021/05/01 12:05:54;;;;;;;26.27;8.82;;;;;;;;;;5031198;28;20032;-73
2021/05/01 12:08:24;;;;;;;26.88;8.50;;;;;;;;;;5026720;28;20036;-73
2021/05/01 12:10:57;;;;;;;47.80;29.85;;;;;;;;;;5028974;28;20030;-71
2021/05/01 12:13:25;;;;;;;20.08;8.43;;;;;;;;;;5026482;28;20064;-73
2021/05/01 12:16:16;;;;;;;61.75;36.75;;;;;;;;;;5026659;28;20030;-72
2021/05/01 12:18:47;;;;;;;23.83;8.52;;;;;;;;;;5030277;28;20439;-71
2021/05/01 12:21:48;;;;;;;24.48;9.95;;;;;;;;;;5029637;28;20056;-71
2021/05/01 12:24:41;;;;;;;17.40;6.40;;;;;;;;;;5026134;28;20032;-70
2021/05/01 12:27:07;;;;;;;29.38;14.20;;;;;;;;;;5023809;28;20037;-73
2021/05/01 12:29:35;;;;;;;27.92;14.43;;;;;;;;;;5023345;28;20033;-77
2021/05/01 12:32:10;;;;;;;338.73;234.52;;;;;;;;;;5025027;28;20037;-72
2021/05/01 12:34:53;;;;;;;28.00;10.30;;;;;;;;;;5028436;28;20034;-71
2021/05/01 12:37:20;;;;;;;17.52;8.27;;;;;;;;;;5034656;28;20368;-73
2021/05/01 12:39:46;;;;;;;21.50;9.02;;;;;;;;;;5034987;28;20033;-73
2021/05/01 12:42:28;;;;;;;23.95;6.22;;;;;;;;;;5041793;28;20133;-72
2021/05/01 12:44:54;;;;;;;30.63;8.35;;;;;;;;;;5089863;28;20043;-73
2021/05/01 12:47:36;;;;;;;19.27;6.80;;;;;;;;;;5090807;28;20096;-73
2021/05/01 12:50:15;;;;;;;15.45;6.05;;;;;;;;;;5089175;28;20415;-73
2021/05/01 12:52:42;;;;;;;18.13;5.70;;;;;;;;;;5067379;28;20044;-73
2021/05/01 12:55:08;;;;;;;16.85;6.25;;;;;;;;;;5071955;28;20017;-73
2021/05/01 12:57:35;;;;;;;39.80;16.95;;;;;;;;;;5069625;28;20020;-73
2021/05/01 13:00:34;;;;;;;20.67;6.40;;;;;;;;;;5072377;28;20024;-73
2021/05/01 13:03:13;;;;;;;22.05;6.25;;;;;;;;;;4971046;28;20488;-73
2021/05/01 13:05:41;;;;;;;17.88;6.18;;;;;;;;;;4976127;28;20066;-73
2021/05/01 13:08:07;;;;;;;16.13;5.75;;;;;;;;;;4973925;28;20026;-73
2021/05/01 13:10:34;;;;;;;24.48;6.28;;;;;;;;;;4987384;28;20041;-73
2021/05/01 13:13:07;;;;;;;24.38;5.93;;;;;;;;;;4978744;28;20963;-74
2021/05/01 13:16:09;;;;;;;20.45;7.68;;;;;;;;;;4987538;28;20546;-73
2021/05/01 13:18:54;;;;;;;19.20;7.97;;;;;;;;;;4915725;29;20099;-73
2021/05/01 13:21:20;;;;;;;17.30;5.82;;;;;;;;;;4912732;29;20046;-73
2021/05/01 13:23:46;;;;;;;21.70;5.90;;;;;;;;;;4915041;29;20078;-73
2021/05/01 13:26:17;;;;;;;16.65;5.70;;;;;;;;;;4911593;29;20152;-73
2021/05/01 13:28:51;;;;;;;19.20;5.45;;;;;;;;;;4912780;29;20032;-73
2021/05/01 13:31:17;;;;;;;16.42;5.45;;;;;;;;;;4913829;29;20502;-73
2021/05/01 13:33:44;;;;;;;20.52;5.88;;;;;;;;;;4912827;29;20076;-72
2021/05/01 13:36:12;;;;;;;19.98;6.10;;;;;;;;;;4914216;29;20107;-72
2021/05/01 13:38:40;;;;;;;21.23;6.18;;;;;;;;;;4951009;28;20034;-73
2021/05/01 13:41:17;;;;;;;19.38;5.80;;;;;;;;;;4987042;28;20121;-73
2021/05/01 13:43:51;;;;;;;22.35;6.00;;;;;;;;;;4974514;28;20108;-73
2021/05/01 13:46:19;;;;;;;22.80;6.00;;;;;;;;;;4983896;28;20597;-73
2021/05/01 13:48:46;;;;;;;16.65;6.15;;;;;;;;;;4984620;28;20520;-73
2021/05/01 13:51:12;;;;;;;16.95;5.55;;;;;;;;;;4982569;28;20511;-73
2021/05/01 13:53:38;;;;;;;17.35;5.38;;;;;;;;;;5066381;28;20045;-72
2021/05/01 13:56:05;;;;;;;21.50;6.18;;;;;;;;;;5075635;28;20112;-71
2021/05/01 13:58:32;;;;;;;19.20;6.10;;;;;;;;;;5070925;28;20024;-71
2021/05/01 14:00:59;;;;;;;15.75;5.20;;;;;;;;;;5071083;28;20370;-72
2021/05/01 14:03:30;;;;;;;16.50;5.95;;;;;;;;;;5072502;28;20485;-74
2021/05/01 14:05:57;;;;;;;19.05;6.15;;;;;;;;;;5079593;28;20082;-72
2021/05/01 14:08:23;;;;;;;20.35;5.88;;;;;;;;;;5080580;28;20017;-72
2021/05/01 14:10:52;;;;;;;16.25;5.47;;;;;;;;;;5073184;28;20021;-72
2021/05/01 14:13:18;;;;;;;38.42;6.47;;;;;;;;;;5077695;28;20050;-73
2021/05/01 14:15:44;;;;;;;21.10;6.07;;;;;;;;;;5082437;28;20025;-72
2021/05/01 14:18:11;;;;;;;17.38;5.22;;;;;;;;;;5086728;28;20033;-72
2021/05/01 14:20:38;;;;;;;19.60;4.85;;;;;;;;;;5073056;28;20044;-72
2021/05/01 14:23:08;;;;;;;21.90;6.95;;;;;;;;;;5072545;28;20025;-72
2021/05/01 14:25:35;;;;;;;18.88;5.63;;;;;;;;;;5072248;28;20052;-72
2021/05/01 14:28:03;;;;;;;20.52;5.20;;;;;;;;;;5070416;28;20509;-72
2021/05/01 14:30:39;;;;;;;20.70;6.40;;;;;;;;;;5075224;28;20024;-72
2021/05/01 14:33:08;;;;;;;19.58;5.80;;;;;;;;;;5073099;28;20017;-73
2021/05/01 14:35:35;;;;;;;22.48;6.43;;;;;;;;;;5068312;28;20027;-73
2021/05/01 14:38:02;;;;;;;19.85;5.93;;;;;;;;;;5062846;28;20482;-72
2021/05/01 14:40:30;;;;;;;19.70;5.25;;;;;;;;;;5072414;28;20036;-73
2021/05/01 14:43:01;;;;;;;21.17;6.15;;;;;;;;;;5071045;28;20519;-73
2021/05/01 14:45:31;;;;;;;17.73;5.80;;;;;;;;;;5072531;28;20164;-73
2021/05/01 14:48:16;;;;;;;20.45;6.57;;;;;;;;;;5078476;28;20028;-73
2021/05/01 14:50:46;;;;;;;19.65;6.10;;;;;;;;;;5070123;28;20119;-73
2021/05/01 14:53:13;;;;;;;21.17;6.25;;;;;;;;;;5071148;28;20029;-73
2021/05/01 14:55:39;;;;;;;22.67;6.55;;;;;;;;;;5076808;28;20064;-73
2021/05/01 14:58:22;;;;;;;18.33;6.20;;;;;;;;;;5077148;28;20059;-73
2021/05/01 15:00:48;;;;;;;24.95;7.40;;;;;;;;;;5073460;28;20021;-73
2021/05/01 15:03:14;;;;;;;21.92;7.30;;;;;;;;;;5071810;28;20024;-73